Time;durP1;ratioP1;P1;durP2;ratioP2;P2;SDS_P1;SDS_P2;PMS_P1;PMS_P2;Temp;Humidity;BMP_temperature;BMP_pressure;BME280_temperature;BME280_humidity;BME280_pressure;Samples;Min_cycle;Max_cycle;Signal;HPM_P1;HPM_P2
2022/09/01 00:11:13;;;;;;;7.78;6.97;;;;;;;23.12;69.40;100847.94;5024501;28;102887;-50
2022/09/01 00:13:41;;;;;;;7.47;6.97;;;;;;;23.12;69.59;100847.13;5035240;27;102361;-50
2022/09/01 00:16:08;;;;;;;7.45;6.88;;;;;;;23.12;69.39;100859.03;5035817;27;102262;-50
2022/09/01 00:18:36;;;;;;;7.60;7.10;;;;;;;23.12;69.39;100853.47;5035614;27;102210;-50
2022/09/01 00:21:02;;;;;;;8.73;8.02;;;;;;;23.12;69.46;100859.03;5015595;27;103846;-50
2022/09/01 00:23:29;;;;;;;7.32;6.82;;;;;;;23.12;69.61;100859.03;5024177;28;102229;-50
2022/09/01 00:25:56;;;;;;;7.78;7.25;;;;;;;23.11;69.64;100868.50;5034656;27;102309;-50
2022/09/01 00:28:23;;;;;;;7.20;6.70;;;;;;;23.11;69.72;100867.69;5033139;27;102415;-50
2022/09/01 00:30:50;;;;;;;7.37;6.80;;;;;;;23.10;69.60;100855.78;5022815;28;104522;-50
2022/09/01 00:33:16;;;;;;;7.05;6.55;;;;;;;23.10;69.46;100854.97;5035722;27;102247;-50
2022/09/01 00:35:43;;;;;;;7.93;7.32;;;;;;;23.11;69.53;100862.94;5034738;27;102178;-50
2022/09/01 00:38:10;;;;;;;7.93;7.32;;;;;;;23.10;69.03;100872.44;5036084;27;102675;-50
2022/09/01 00:40:38;;;;;;;8.00;7.50;;;;;;;23.11;69.41;100873.25;5037710;27;103922;-50
2022/09/01 00:43:16;;;;;;;8.68;8.07;;;;;;;23.10;69.20;100872.44;5034066;27;102061;-50
2022/09/01 00:45:43;;;;;;;7.13;6.43;;;;;;;23.09;69.43;100870.84;5027139;27;101927;-50
2022/09/01 00:48:10;;;;;;;7.07;6.57;;;;;;;23.10;69.63;100871.63;5016321;28;102375;-50
2022/09/01 00:50:38;;;;;;;7.28;6.85;;;;;;;23.10;69.37;100878.00;5018629;27;103936;-50
2022/09/01 00:53:06;;;;;;;7.35;6.85;;;;;;;23.10;69.16;100882.75;5015384;28;102244;-50
2022/09/01 00:55:36;;;;;;;;;;;;;;;23.09;69.37;100881.13;5031517;28;102294;-51
2022/09/01 00:58:05;;;;;;;6.22;5.72;;;;;;;23.11;69.39;100876.03;5036255;27;102193;-50
2022/09/01 01:00:39;;;;;;;7.03;6.43;;;;;;;23.10;69.64;100882.75;5023710;27;103993;-50
2022/09/01 01:03:08;;;;;;;6.63;6.22;;;;;;;23.09;69.24;100875.59;5018806;28;102236;-50
2022/09/01 01:05:39;;;;;;;7.22;6.63;;;;;;;23.09;69.16;100870.84;5014578;28;102436;-51
2022/09/01 01:08:08;;;;;;;7.22;6.75;;;;;;;23.10;68.82;100869.66;5016041;28;102700;-50
2022/09/01 01:10:38;;;;;;;7.40;6.80;;;;;;;23.09;69.00;100870.84;5013956;28;103903;-50
2022/09/01 01:13:07;;;;;;;7.25;6.55;;;;;;;23.08;69.17;100876.72;5026189;27;102246;-51
2022/09/01 01:15:35;;;;;;;7.45;6.95;;;;;;;23.08;69.12;100874.78;5034993;27;102272;-51
2022/09/01 01:18:01;;;;;;;8.27;7.63;;;;;;;23.07;69.49;100875.91;5036172;27;102328;-50
2022/09/01 01:23:29;;;;;;;7.30;6.80;;;;;;;23.06;69.21;100865.97;4984346;28;102194;-50
2022/09/01 01:25:59;;;;;;;7.30;6.75;;;;;;;23.07;69.25;100867.59;5014253;28;102413;-50
2022/09/01 01:28:29;;;;;;;7.43;6.82;;;;;;;23.06;69.31;100865.97;5016206;27;102784;-50
2022/09/01 01:31:00;;;;;;;7.28;6.78;;;;;;;23.07;68.88;100870.38;5034581;27;103460;-50
2022/09/01 01:33:33;;;;;;;6.90;6.47;;;;;;;23.08;69.02;100865.63;5034886;27;102834;-50
2022/09/01 01:36:00;;;;;;;7.60;7.07;;;;;;;23.07;69.01;100864.81;5034177;27;102429;-50
2022/09/01 01:38:29;;;;;;;6.68;6.18;;;;;;;23.08;69.05;100865.63;5036543;27;102204;-50
2022/09/01 01:40:56;;;;;;;6.63;6.13;;;;;;;23.08;69.18;100869.22;5038564;27;103840;-50
2022/09/01 01:43:25;;;;;;;7.67;7.17;;;;;;;23.06;68.98;100865.97;5038150;27;102462;-50
2022/09/01 01:45:53;;;;;;;8.23;7.53;;;;;;;23.08;69.22;100873.94;5033022;27;102702;-50
2022/09/01 01:48:24;;;;;;;7.43;6.93;;;;;;;23.07;69.15;100873.13;5038450;27;102293;-51
2022/09/01 01:50:51;;;;;;;7.72;7.22;;;;;;;23.06;69.06;100877.09;5035481;27;103945;-51
2022/09/01 01:53:18;;;;;;;7.93;7.43;;;;;;;23.06;69.13;100877.09;5038867;27;102239;-51
2022/09/01 01:55:48;;;;;;;7.57;7.07;;;;;;;23.06;69.06;100888.19;5029820;27;102130;-50
2022/09/01 01:58:18;;;;;;;6.47;6.07;;;;;;;23.07;69.38;100889.78;5019121;28;102220;-50
2022/09/01 02:00:46;;;;;;;6.70;6.20;;;;;;;23.08;69.47;100893.38;5017319;28;103894;-51
2022/09/01 02:03:16;;;;;;;7.00;6.50;;;;;;;23.06;69.44;100893.75;5036489;28;102256;-51
2022/09/01 02:05:43;;;;;;;7.00;6.50;;;;;;;23.07;69.69;100889.00;5037159;27;102229;-50
2022/09/01 02:08:11;;;;;;;7.22;6.72;;;;;;;23.07;69.67;100883.44;5038463;27;102246;-50
2022/09/01 02:10:41;;;;;;;6.72;6.18;;;;;;;23.05;69.46;100872.69;5020552;27;104290;-50
2022/09/01 02:13:10;;;;;;;7.03;6.45;;;;;;;23.06;69.82;100865.97;5018120;28;102229;-50
2022/09/01 02:15:44;;;;;;;6.80;6.40;;;;;;;23.06;69.49;100860.44;5017432;28;102285;-50
2022/09/01 02:18:13;;;;;;;6.50;6.05;;;;;;;23.03;69.44;100856.38;5021026;28;102026;-51
2022/09/01 02:20:39;;;;;;;;;;;;;;;23.05;69.54;100861.59;5037220;27;103977;-50
2022/09/01 02:23:09;;;;;;;6.32;5.85;;;;;;;23.05;69.36;100864.38;5037954;27;102627;-50
2022/09/01 02:25:37;;;;;;;6.50;6.03;;;;;;;23.05;69.33;100864.38;5033384;27;102525;-50
2022/09/01 02:28:08;;;;;;;6.63;6.20;;;;;;;23.05;69.66;100869.94;5037568;27;102203;-51
2022/09/01 02:30:36;;;;;;;7.57;7.00;;;;;;;23.06;69.39;100854.88;5016876;28;103918;-50
2022/09/01 02:33:04;;;;;;;6.78;6.38;;;;;;;23.05;69.50;100861.59;5027084;27;102296;-50
2022/09/01 02:35:33;;;;;;;6.90;6.38;;;;;;;23.04;69.51;100854.41;5036861;27;102205;-51
2022/09/01 02:37:59;;;;;;;6.93;6.43;;;;;;;23.05;69.66;100858.81;5029285;27;102485;-49
2022/09/01 02:40:29;;;;;;;6.88;6.38;;;;;;;23.05;69.64;100847.72;5042130;27;104031;-50
2022/09/01 02:42:57;;;;;;;7.95;7.45;;;;;;;23.02;69.50;100854.78;5024532;27;102227;-50
2022/09/01 02:45:24;;;;;;;6.57;6.18;;;;;;;23.04;69.92;100857.19;5019645;28;102420;-50
2022/09/01 02:47:52;;;;;;;6.72;6.28;;;;;;;23.03;69.64;100850.03;5017880;27;103025;-51
2022/09/01 02:50:21;;;;;;;7.00;6.50;;;;;;;23.04;69.68;100854.41;5027077;27;104125;-50
2022/09/01 02:52:49;;;;;;;7.57;6.93;;;;;;;23.02;69.73;100852.00;5036985;27;102139;-50
2022/09/01 02:55:20;;;;;;;7.50;7.00;;;;;;;23.03;69.67;100850.84;5036140;27;102179;-50
2022/09/01 02:57:49;;;;;;;7.75;6.97;;;;;;;23.02;69.62;100867.84;5038052;27;102512;-50
2022/09/01 03:00:21;;;;;;;7.85;7.25;;;;;;;23.03;69.67;100866.69;5036247;27;103898;-50
2022/09/01 03:02:50;;;;;;;7.15;6.65;;;;;;;23.03;69.44;100866.69;5016795;28;102380;-50
2022/09/01 03:05:24;;;;;;;6.90;6.40;;;;;;;23.03;69.67;100872.22;5016418;28;102275;-50
2022/09/01 03:07:56;;;;;;;7.78;7.28;;;;;;;23.03;69.35;100866.69;5017989;28;102037;-51
2022/09/01 03:10:27;;;;;;;6.22;5.82;;;;;;;23.03;69.63;100872.22;5016420;28;103895;-50
2022/09/01 03:12:54;;;;;;;6.97;6.43;;;;;;;23.03;69.79;100877.78;5016914;28;102073;-50
2022/09/01 03:15:22;;;;;;;7.15;6.65;;;;;;;23.02;69.41;100865.06;5022264;27;102332;-50
2022/09/01 03:17:48;;;;;;;7.47;6.88;;;;;;;23.02;69.54;100865.88;5037664;27;102175;-50
2022/09/01 03:20:15;;;;;;;7.60;7.03;;;;;;;23.03;69.62;100861.13;5035818;27;104186;-50
2022/09/01 03:22:43;;;;;;;6.93;6.43;;;;;;;23.01;69.42;100853.16;5037002;27;102474;-50
2022/09/01 03:25:11;;;;;;;6.95;6.45;;;;;;;23.02;69.51;100845.66;5031383;27;102448;-50
2022/09/01 03:27:37;;;;;;;7.20;6.60;;;;;;;23.02;69.70;100851.19;5017880;28;102731;-50
2022/09/01 03:30:05;;;;;;;7.10;6.55;;;;;;;23.01;69.62;100846.81;5015488;28;103949;-50
2022/09/01 03:32:32;;;;;;;7.68;7.18;;;;;;;23.03;69.55;100855.56;5024059;28;102285;-50
2022/09/01 03:34:59;;;;;;;7.10;6.60;;;;;;;23.00;69.29;100837.66;5027476;27;102205;-50
2022/09/01 03:37:25;;;;;;;6.68;6.28;;;;;;;23.01;69.34;100836.50;5028530;28;102232;-50
2022/09/01 03:39:53;;;;;;;7.45;6.97;;;;;;;23.00;69.55;100834.88;5036554;27;104124;-50
2022/09/01 03:42:24;;;;;;;6.53;6.03;;;;;;;23.01;69.28;100841.25;5056830;27;102193;-50
2022/09/01 03:44:52;;;;;;;7.78;7.15;;;;;;;23.01;69.36;100830.97;5056206;27;101990;-50
2022/09/01 03:47:20;;;;;;;6.90;6.40;;;;;;;23.01;69.34;100846.81;5057441;27;102268;-50
2022/09/01 03:49:48;;;;;;;6.73;6.30;;;;;;;22.99;69.40;100849.94;5040179;27;103888;-50
2022/09/01 03:52:16;;;;;;;7.30;6.25;;;;;;;23.00;69.23;100850.72;5023436;27;102204;-50
2022/09/01 03:54:44;;;;;;;7.68;7.18;;;;;;;23.00;69.21;100845.97;5028469;27;102269;-50
2022/09/01 03:57:10;;;;;;;6.53;6.03;;;;;;;23.00;69.16;100856.28;5019916;27;104306;-50
2022/09/01 03:59:42;;;;;;;7.00;6.50;;;;;;;22.98;69.23;100855.84;5028821;27;103954;-50
2022/09/01 04:02:09;;;;;;;6.82;6.35;;;;;;;23.00;69.06;100856.28;5035617;27;102300;-50
2022/09/01 04:04:36;;;;;;;7.57;6.77;;;;;;;22.99;69.26;100860.22;5035744;27;102128;-50
2022/09/01 04:07:04;;;;;;;7.67;7.07;;;;;;;22.97;69.35;100852.25;5032475;27;102270;-50
2022/09/01 04:09:32;;;;;;;7.05;6.60;;;;;;;22.98;68.83;100864.16;5029759;27;103879;-50
2022/09/01 04:11:58;;;;;;;7.57;6.87;;;;;;;22.98;69.12;100869.72;5035804;27;102347;-51
2022/09/01 04:14:26;;;;;;;7.22;6.72;;;;;;;22.99;69.11;100877.69;5035649;27;101975;-50
2022/09/01 04:19:41;;;;;;;7.03;6.53;;;;;;;22.98;68.98;100887.19;5020145;28;103921;-50
2022/09/01 04:22:12;;;;;;;6.53;6.03;;;;;;;22.99;69.27;100888.78;5015828;28;102326;-50
2022/09/01 04:24:42;;;;;;;6.25;5.70;;;;;;;22.99;69.14;100893.53;5031906;27;102417;-50
2022/09/01 04:27:08;;;;;;;6.45;6.05;;;;;;;22.98;69.07;100892.72;5016479;28;102234;-50
2022/09/01 04:29:35;;;;;;;6.88;6.47;;;;;;;22.98;69.10;100892.72;5028362;27;103896;-50
2022/09/01 04:32:06;;;;;;;7.70;7.20;;;;;;;22.98;69.31;100892.72;5035337;27;102367;-50
2022/09/01 04:34:36;;;;;;;7.40;6.80;;;;;;;22.98;69.21;100897.47;5035298;27;102249;-50
2022/09/01 04:37:09;;;;;;;6.93;6.43;;;;;;;22.98;68.98;100903.03;5036067;27;102320;-51
2022/09/01 04:39:37;;;;;;;7.40;6.80;;;;;;;22.98;69.25;100898.28;5014476;28;103920;-50
2022/09/01 04:42:05;;;;;;;6.68;6.18;;;;;;;22.98;69.00;100894.69;5054696;27;102312;-50
2022/09/01 04:44:32;;;;;;;7.10;6.53;;;;;;;22.99;69.25;100887.97;5018628;27;102269;-50
2022/09/01 04:46:59;;;;;;;7.32;6.82;;;;;;;22.98;69.10;100892.72;5016331;28;102213;-50
2022/09/01 04:49:28;;;;;;;7.60;7.07;;;;;;;22.99;69.27;100899.09;5014337;28;104012;-50
2022/09/01 04:51:55;;;;;;;7.05;6.45;;;;;;;22.99;69.20;100899.09;5021984;27;102318;-50
2022/09/01 04:54:22;;;;;;;6.95;6.35;;;;;;;22.98;69.27;100897.47;5028273;27;102374;-50
2022/09/01 04:56:51;;;;;;;6.22;5.72;;;;;;;22.97;69.28;100899.44;5024942;27;102593;-50
2022/09/01 04:59:19;;;;;;;7.53;6.95;;;;;;;22.99;69.30;100894.34;5034204;27;103853;-50
2022/09/01 05:01:48;;;;;;;7.13;6.53;;;;;;;22.99;69.31;100885.19;5035190;27;102208;-50
2022/09/01 05:04:18;;;;;;;6.68;6.18;;;;;;;22.99;69.10;100887.97;5035006;27;102570;-50
2022/09/01 05:06:49;;;;;;;7.38;6.55;;;;;;;22.98;69.16;100891.91;5017062;27;102297;-52
2022/09/01 05:09:17;;;;;;;7.20;6.60;;;;;;;22.97;69.15;100888.34;5014776;28;103922;-50
2022/09/01 05:11:47;;;;;;;7.03;6.35;;;;;;;22.99;69.06;100890.75;5014581;28;102009;-49
2022/09/01 05:14:17;;;;;;;6.43;5.93;;;;;;;22.99;69.14;100890.75;5025131;27;102310;-51
2022/09/01 05:16:44;;;;;;;6.78;6.28;;;;;;;22.99;69.17;100890.75;5034228;27;102699;-50
2022/09/01 05:19:16;;;;;;;6.38;5.88;;;;;;;23.00;69.10;100887.63;5024053;27;103914;-50
2022/09/01 05:21:45;;;;;;;7.00;6.35;;;;;;;23.01;69.11;100896.78;5014909;28;102038;-50
2022/09/01 05:24:16;;;;;;;6.72;6.13;;;;;;;23.00;68.82;100895.13;5021233;27;102052;-51
2022/09/01 05:26:46;;;;;;;7.45;6.75;;;;;;;23.00;68.94;100886.81;5035815;27;102089;-50
2022/09/01 05:29:16;;;;;;;6.90;6.30;;;;;;;23.00;69.06;100892.34;5034672;27;104136;-50
2022/09/01 05:31:45;;;;;;;7.22;6.72;;;;;;;23.00;68.85;100889.59;5027829;27;102044;-50
2022/09/01 05:34:13;;;;;;;7.13;6.53;;;;;;;23.00;69.04;100892.34;5016101;28;102206;-50
2022/09/01 05:36:42;;;;;;;8.02;7.30;;;;;;;23.00;68.96;100895.13;5025279;27;102655;-50
2022/09/01 05:39:12;;;;;;;6.15;5.65;;;;;;;23.00;69.11;100878.47;5013083;28;103900;-50
2022/09/01 05:41:40;;;;;;;6.50;6.03;;;;;;;23.00;68.96;100884.03;5032020;27;102272;-50
2022/09/01 05:44:08;;;;;;;7.82;7.22;;;;;;;22.97;68.68;100884.72;5019638;27;102656;-50
2022/09/01 05:46:38;;;;;;;7.10;6.60;;;;;;;22.99;68.87;100885.19;5015035;28;102151;-50
2022/09/01 05:49:08;;;;;;;7.45;6.88;;;;;;;22.99;69.11;100888.78;5025259;27;104335;-50
2022/09/01 05:51:35;;;;;;;7.13;6.63;;;;;;;23.00;68.81;100895.13;5025537;27;102078;-50
2022/09/01 05:54:03;;;;;;;7.13;6.53;;;;;;;22.99;68.67;100899.09;5021928;28;102333;-50
2022/09/01 05:56:30;;;;;;;;;;;;;;;23.00;68.89;100900.69;5028030;27;102122;-50
2022/09/01 05:59:00;;;;;;;6.25;5.75;;;;;;;23.00;68.94;100900.69;5019656;27;103951;-50
2022/09/01 06:01:32;;;;;;;6.28;5.75;;;;;;;23.00;68.84;100900.69;5020320;27;102095;-50
2022/09/01 06:04:03;;;;;;;6.35;5.90;;;;;;;23.01;68.64;100916.19;5030142;27;102152;-50
2022/09/01 06:06:36;;;;;;;7.85;7.25;;;;;;;23.01;68.97;100907.88;5022529;27;104283;-50
2022/09/01 06:09:04;;;;;;;7.38;6.78;;;;;;;23.00;68.74;100917.34;5032787;27;103891;-50
2022/09/01 06:11:31;;;;;;;7.25;6.70;;;;;;;23.00;68.84;100917.34;5024459;27;102284;-50
2022/09/01 06:14:00;;;;;;;7.38;6.78;;;;;;;23.01;68.75;100916.19;5013927;28;102091;-50
2022/09/01 06:16:27;;;;;;;7.35;6.47;;;;;;;23.00;68.71;100917.34;5021910;27;102191;-50
2022/09/01 06:18:56;;;;;;;6.72;6.13;;;;;;;23.01;68.94;100918.97;5013676;28;104150;-50
2022/09/01 06:21:23;;;;;;;7.40;6.45;;;;;;;23.00;68.94;100917.34;5014024;28;102380;-50
2022/09/01 06:23:52;;;;;;;7.03;6.35;;;;;;;23.00;68.88;100923.69;5013713;28;102222;-50
2022/09/01 06:26:27;;;;;;;6.68;6.07;;;;;;;22.99;69.03;100927.63;5017854;28;102224;-50
2022/09/01 06:28:55;;;;;;;6.95;6.45;;;;;;;23.00;68.98;100918.16;5018626;27;104054;-50
2022/09/01 06:31:25;;;;;;;7.55;6.82;;;;;;;22.99;69.05;100907.41;5025427;27;102878;-50
2022/09/01 06:33:52;;;;;;;7.10;6.63;;;;;;;23.00;68.94;100911.78;5026730;27;102328;-50
2022/09/01 06:36:20;;;;;;;7.80;7.03;;;;;;;23.01;69.13;100924.53;5020854;28;102307;-50
2022/09/01 06:38:48;;;;;;;7.50;7.00;;;;;;;23.02;69.21;100926.13;5017681;27;107928;-50
2022/09/01 06:41:18;;;;;;;7.20;6.63;;;;;;;23.01;69.30;100924.53;5035399;27;102443;-49
2022/09/01 06:43:44;;;;;;;;;;;;;;;23.02;68.98;100926.13;5031400;27;102029;-50
2022/09/01 06:46:11;;;;;;;7.05;6.35;;;;;;;23.01;69.18;100924.53;5021403;28;102129;-50
2022/09/01 06:48:45;;;;;;;6.63;6.03;;;;;;;23.03;69.35;100933.28;5023006;28;104025;-50
2022/09/01 06:51:13;;;;;;;7.57;6.97;;;;;;;23.01;69.30;100930.09;5017022;28;102146;-50
2022/09/01 06:53:40;;;;;;;9.75;6.75;;;;;;;23.04;69.16;100923.81;5025910;28;102563;-50
2022/09/01 06:56:09;;;;;;;8.13;7.35;;;;;;;23.03;69.06;100920.22;5029420;27;102159;-50
2022/09/01 06:58:37;;;;;;;7.03;6.53;;;;;;;23.05;69.11;100913.53;5035567;27;104617;-50
2022/09/01 07:01:06;;;;;;;7.82;6.95;;;;;;;23.07;69.46;100920.31;5016191;28;102148;-50
2022/09/01 07:03:32;;;;;;;7.25;6.65;;;;;;;23.08;69.38;100924.75;5024474;27;102940;-50
2022/09/01 07:06:05;;;;;;;8.05;7.32;;;;;;;23.09;69.32;100926.34;5029801;27;102381;-50
2022/09/01 07:08:38;;;;;;;7.72;7.13;;;;;;;23.10;69.41;100927.97;5015587;27;104037;-50
2022/09/01 07:11:06;;;;;;;7.25;6.63;;;;;;;23.10;69.68;100916.06;5020040;27;102361;-50
2022/09/01 07:13:35;;;;;;;7.72;6.85;;;;;;;23.10;69.34;100922.41;5021855;27;102194;-50
2022/09/01 07:16:05;;;;;;;7.73;7.13;;;;;;;23.09;69.44;100926.34;5033417;27;102605;-51
2022/09/01 07:18:32;;;;;;;7.38;6.05;;;;;;;23.10;69.47;100927.97;5021470;28;104701;-50
2022/09/01 07:21:06;;;;;;;7.28;6.72;;;;;;;23.10;69.50;100927.97;5018932;27;102464;-50
2022/09/01 07:23:32;;;;;;;7.70;7.07;;;;;;;23.12;69.57;100919.31;5025384;27;102573;-50
2022/09/01 07:25:59;;;;;;;7.97;7.28;;;;;;;23.11;69.66;100918.47;5029799;27;102195;-50
2022/09/01 07:28:28;;;;;;;7.90;7.20;;;;;;;23.11;69.47;100912.91;5030836;27;104082;-50
2022/09/01 07:30:55;;;;;;;;;;;;;;;23.12;69.63;100916.53;5027391;27;102543;-50
2022/09/01 07:33:23;;;;;;;6.85;6.25;;;;;;;23.13;69.42;100913.38;5026295;28;102360;-50
2022/09/01 07:35:54;;;;;;;6.53;5.93;;;;;;;23.13;68.83;100901.47;5035882;27;101993;-50
2022/09/01 07:38:22;;;;;;;7.78;7.18;;;;;;;23.16;69.45;100909.91;5035466;27;104071;-50
2022/09/01 07:40:52;;;;;;;7.43;6.88;;;;;;;23.17;69.49;100905.97;5045264;27;102155;-50
2022/09/01 07:43:23;;;;;;;7.63;7.03;;;;;;;23.17;69.28;100905.16;5035356;27;102601;-50
2022/09/01 07:45:54;;;;;;;9.48;7.38;;;;;;;23.19;69.55;100900.88;5027209;27;102210;-50
2022/09/01 07:48:23;;;;;;;7.97;7.28;;;;;;;23.20;69.16;100913.59;5018602;27;103886;-50
2022/09/01 07:50:51;;;;;;;;;;;;;;;23.21;69.28;100917.97;5025068;27;102556;-50
2022/09/01 07:53:21;;;;;;;6.78;6.22;;;;;;;23.20;67.51;100916.38;5035431;27;102137;-50
2022/09/01 07:55:50;;;;;;;8.57;7.13;;;;;;;23.21;69.38;100906.88;5030710;27;102216;-50
2022/09/01 07:58:18;;;;;;;7.82;7.10;;;;;;;23.22;69.37;100907.66;5020149;28;103967;-50
2022/09/01 08:00:46;;;;;;;8.02;7.43;;;;;;;23.22;66.87;100911.28;5016058;28;102286;-50
2022/09/01 08:03:13;;;;;;;8.05;7.38;;;;;;;23.24;69.02;100914.50;5019469;28;102132;-51
2022/09/01 08:05:39;;;;;;;7.57;7.07;;;;;;;23.23;69.42;100912.88;5032216;27;102574;-50
2022/09/01 08:08:07;;;;;;;8.55;7.85;;;;;;;23.23;69.43;100921.22;5020465;27;104374;-50
2022/09/01 08:10:37;;;;;;;8.48;7.78;;;;;;;23.22;69.53;100911.28;5037693;27;102492;-50
2022/09/01 08:13:05;;;;;;;8.82;8.13;;;;;;;23.21;69.44;100904.09;5030504;27;102070;-54
2022/09/01 08:15:32;;;;;;;8.57;7.88;;;;;;;23.20;69.22;100908.03;5017295;28;102155;-51
2022/09/01 08:17:58;;;;;;;10.18;9.27;;;;;;;23.21;69.40;100903.28;5027652;27;103832;-50
2022/09/01 08:20:25;;;;;;;9.23;8.48;;;;;;;23.22;69.45;100921.56;5026043;27;102036;-50
2022/09/01 08:22:52;;;;;;;9.35;8.45;;;;;;;23.20;69.31;100901.69;5033384;27;102278;-50
2022/09/01 08:25:18;;;;;;;8.02;7.50;;;;;;;23.21;69.17;100901.31;5024549;27;102093;-51
2022/09/01 08:27:45;;;;;;;8.15;7.35;;;;;;;23.21;69.33;100904.09;5016802;27;104150;-50
2022/09/01 08:30:14;;;;;;;8.30;7.70;;;;;;;23.22;69.47;100907.66;5015609;28;102234;-51
2022/09/01 08:32:43;;;;;;;8.10;7.40;;;;;;;23.21;68.95;100895.75;5034393;27;102480;-50
2022/09/01 08:35:12;;;;;;;7.90;7.28;;;;;;;23.21;69.21;100901.31;5031137;27;102171;-50
2022/09/01 08:37:39;;;;;;;8.25;7.55;;;;;;;23.23;69.41;100890.69;5023599;28;104050;-50
2022/09/01 08:40:07;;;;;;;8.93;8.27;;;;;;;23.23;69.34;100901.78;5025048;27;102382;-51
2022/09/01 08:42:46;;;;;;;8.95;8.15;;;;;;;23.23;69.36;100889.88;5018395;27;102001;-50
2022/09/01 08:45:22;;;;;;;9.23;8.52;;;;;;;23.24;69.35;100889.50;5032761;27;102172;-51
2022/09/01 08:47:52;;;;;;;9.10;8.40;;;;;;;23.24;69.22;100889.50;5015084;28;104065;-50
2022/09/01 08:50:20;;;;;;;8.95;8.15;;;;;;;23.25;69.42;100885.56;5026474;27;101973;-50
2022/09/01 08:52:54;;;;;;;9.82;8.90;;;;;;;23.25;69.24;100885.56;5033026;27;102475;-50
2022/09/01 08:55:27;;;;;;;8.43;7.78;;;;;;;23.24;69.45;100881.19;5046187;27;102391;-50
2022/09/01 08:57:56;;;;;;;8.55;7.93;;;;;;;23.23;69.34;100879.56;5031230;27;104203;-50
2022/09/01 09:00:24;;;;;;;;;;;;;;;23.24;69.42;100872.03;5015675;28;101960;-50
2022/09/01 09:03:04;;;;;;;8.23;7.40;;;;;;;23.24;69.35;100867.28;5029239;27;102265;-50
2022/09/01 09:05:40;;;;;;;8.15;7.40;;;;;;;23.26;69.29;100875.25;5027038;27;102586;-51
2022/09/01 09:08:29;;;;;;;8.48;7.72;;;;;;;23.25;69.37;100865.31;5015143;28;104430;-51
2022/09/01 09:10:59;;;;;;;7.68;7.05;;;;;;;23.24;69.15;100863.72;5015063;28;102305;-51
2022/09/01 09:13:36;;;;;;;8.38;7.70;;;;;;;23.25;69.22;100868.91;5029849;27;102011;-49
2022/09/01 09:16:09;;;;;;;12.77;11.88;;;;;;;23.24;69.33;100866.50;5036019;27;102330;-50
2022/09/01 09:18:41;;;;;;;8.70;7.97;;;;;;;23.24;69.33;100872.03;5018760;27;103828;-50
2022/09/01 09:21:15;;;;;;;8.85;8.20;;;;;;;23.21;68.59;100873.56;5019666;27;102415;-50
2022/09/01 09:23:47;;;;;;;9.07;8.32;;;;;;;23.22;69.33;100879.91;5016332;28;102295;-50
2022/09/01 09:26:14;;;;;;;8.48;7.88;;;;;;;23.20;69.01;100877.50;5021851;28;102344;-50
2022/09/01 09:28:41;;;;;;;8.98;8.25;;;;;;;23.20;69.38;100885.81;5026863;27;103973;-50
2022/09/01 09:31:31;;;;;;;8.07;7.40;;;;;;;23.18;69.10;100885.34;5017896;28;102523;-50
2022/09/01 09:33:58;;;;;;;8.52;7.75;;;;;;;23.19;69.30;100880.63;5025339;27;102994;-50
2022/09/01 09:36:32;;;;;;;8.50;7.82;;;;;;;23.19;68.73;100880.63;5022418;27;102463;-50
2022/09/01 09:39:09;;;;;;;8.77;8.07;;;;;;;23.18;69.01;100881.78;5019502;28;104065;-50
2022/09/01 09:41:38;;;;;;;8.68;7.57;;;;;;;23.16;68.88;100887.69;5032559;27;102060;-50
2022/09/01 09:44:18;;;;;;;8.35;7.75;;;;;;;23.17;68.50;100875.41;5022631;27;102558;-50
2022/09/01 09:46:47;;;;;;;7.78;7.18;;;;;;;23.17;68.75;100883.75;5025530;27;102596;-50
2022/09/01 09:49:22;;;;;;;8.20;7.60;;;;;;;23.16;68.64;100881.34;5032503;27;103846;-50
2022/09/01 09:51:51;;;;;;;8.32;7.72;;;;;;;23.16;68.65;100887.69;5039006;27;101882;-50
2022/09/01 09:54:21;;;;;;;8.40;7.80;;;;;;;23.17;68.81;100889.31;5022346;27;102620;-50
2022/09/01 09:57:02;;;;;;;7.93;7.32;;;;;;;23.17;68.99;100883.75;5018641;28;102768;-50
2022/09/01 09:59:31;;;;;;;7.47;6.88;;;;;;;23.16;68.71;100890.47;5016515;27;107855;-50
2022/09/01 10:02:13;;;;;;;7.20;6.68;;;;;;;23.17;68.68;100889.31;5017794;28;102269;-51
2022/09/01 10:04:40;;;;;;;8.48;7.63;;;;;;;23.17;68.85;100894.84;5034789;27;102102;-50
2022/09/01 10:07:27;;;;;;;7.72;7.22;;;;;;;23.19;69.10;100891.75;5023193;28;102403;-50
2022/09/01 10:09:57;;;;;;;7.43;6.83;;;;;;;23.18;69.07;100890.91;5019322;27;103915;-50
2022/09/01 10:12:24;;;;;;;7.97;7.28;;;;;;;23.19;69.04;100888.97;5022368;27;102347;-50
2022/09/01 10:14:55;;;;;;;7.57;6.88;;;;;;;23.19;69.26;100894.53;5028709;27;102324;-50
2022/09/01 10:17:29;;;;;;;7.47;6.88;;;;;;;23.18;69.26;100895.66;5028425;27;102477;-50
2022/09/01 10:20:03;;;;;;;6.93;6.32;;;;;;;23.18;69.10;100890.91;5023618;28;104086;-50
2022/09/01 10:22:32;;;;;;;7.55;6.93;;;;;;;23.19;69.18;100897.28;5037443;27;102233;-50
2022/09/01 10:24:59;;;;;;;;;;;;;;;23.18;69.19;100887.31;5037613;27;102265;-50
2022/09/01 10:27:29;;;;;;;7.03;6.43;;;;;;;23.19;69.09;100891.75;5032990;27;102288;-50
2022/09/01 10:30:05;;;;;;;7.13;6.53;;;;;;;23.18;69.39;100896.47;5016930;28;103913;-50
2022/09/01 10:32:38;;;;;;;7.53;7.03;;;;;;;23.18;69.20;100892.88;5028020;28;102329;-50
2022/09/01 10:35:09;;;;;;;7.47;6.88;;;;;;;23.18;69.10;100901.22;5028090;27;102378;-50
2022/09/01 10:37:37;;;;;;;7.20;6.60;;;;;;;23.17;69.11;100900.41;5027700;28;102032;-50
2022/09/01 10:40:17;;;;;;;6.72;6.22;;;;;;;23.18;69.30;100901.22;5018836;27;103978;-50
2022/09/01 10:42:45;;;;;;;8.07;7.38;;;;;;;23.18;68.82;100902.00;5029647;28;102555;-50
2022/09/01 10:45:18;;;;;;;6.97;6.47;;;;;;;23.17;68.88;100894.84;5037124;27;102094;-50
2022/09/01 10:47:46;;;;;;;7.22;6.53;;;;;;;23.17;69.28;100903.19;5037473;27;102610;-50
2022/09/01 10:50:31;;;;;;;9.77;7.03;;;;;;;23.17;69.22;100894.84;5038826;27;103924;-50
2022/09/01 10:53:03;;;;;;;7.07;6.57;;;;;;;23.17;69.03;100891.28;5034866;27;102059;-50
2022/09/01 10:55:46;;;;;;;7.15;6.55;;;;;;;23.16;68.75;100893.25;5036638;27;101942;-50
2022/09/01 10:58:28;;;;;;;6.78;6.25;;;;;;;23.16;68.68;100909.91;5044527;27;102188;-50
2022/09/01 11:00:54;;;;;;;6.90;6.40;;;;;;;23.16;68.86;100907.13;5056592;27;104020;-50
2022/09/01 11:03:51;;;;;;;7.57;7.05;;;;;;;23.15;67.49;100907.47;5035757;27;102322;-50
2022/09/01 11:06:34;;;;;;;7.55;6.88;;;;;;;23.16;68.89;100900.78;5015787;28;102484;-50
2022/09/01 11:09:04;;;;;;;7.80;7.15;;;;;;;23.17;68.83;100905.16;5026363;27;102161;-51
2022/09/01 11:11:40;;;;;;;7.35;6.85;;;;;;;23.16;67.81;100901.56;5022754;27;104005;-51
2022/09/01 11:14:16;;;;;;;7.53;6.93;;;;;;;23.15;67.44;100886.09;5036210;27;102361;-50
2022/09/01 11:17:11;;;;;;;6.70;6.20;;;;;;;23.16;68.03;100898.81;5022645;28;102518;-50
2022/09/01 11:19:43;;;;;;;6.43;6.03;;;;;;;23.14;65.97;100895.56;5017993;28;101926;-50
2022/09/01 11:22:26;;;;;;;7.00;6.50;;;;;;;23.16;68.50;100882.16;5015502;28;104039;-50
2022/09/01 11:25:13;;;;;;;9.30;7.03;;;;;;;23.16;68.64;100892.44;5016751;28;102283;-50
2022/09/01 11:28:01;;;;;;;7.47;6.97;;;;;;;23.14;68.27;100890.00;5015675;28;102192;-50
2022/09/01 11:30:44;;;;;;;7.57;6.97;;;;;;;23.14;68.43;100890.00;5024187;28;102752;-50
2022/09/01 11:33:31;;;;;;;7.25;6.75;;;;;;;23.13;68.13;100888.41;5015551;28;103885;-50
2022/09/01 11:36:01;;;;;;;6.70;6.20;;;;;;;23.13;67.85;100877.28;5016291;28;101997;-50
2022/09/01 11:38:31;;;;;;;7.72;7.03;;;;;;;23.13;67.96;100876.50;5015623;28;102403;-50
2022/09/01 11:40:58;;;;;;;7.07;6.57;;;;;;;23.14;67.83;100878.91;5037819;27;102115;-50
2022/09/01 11:43:25;;;;;;;8.00;7.35;;;;;;;23.13;68.28;100877.28;5023651;27;103914;-49
2022/09/01 11:46:06;;;;;;;7.38;6.90;;;;;;;23.11;68.05;100868.50;5035084;27;102227;-50
2022/09/01 11:48:32;;;;;;;6.95;6.35;;;;;;;23.13;68.05;100866.19;5035787;27;102368;-50